createdAt,value
2022-09-07T00:01:04.277Z,100147.59
2022-09-07T00:03:32.612Z,100149.31
2022-09-07T00:06:00.937Z,100217.28
2022-09-07T00:08:29.092Z,100279.91
2022-09-07T00:10:58.952Z,100371.06
2022-09-07T00:13:31.064Z,100381.03
2022-09-07T00:15:59.179Z,100379.09
2022-09-07T00:18:27.288Z,100439.66
2022-09-07T00:21:02.161Z,100411.38
2022-09-07T00:23:31.327Z,100561.91
2022-09-07T00:26:02.980Z,100583.25
2022-09-07T00:28:32.565Z,100624.44
2022-09-07T00:31:00.730Z,100639.56
2022-09-07T00:33:29.514Z,100676.13
2022-09-07T00:35:59.162Z,100675.59
2022-09-07T00:38:27.332Z,100658.75
2022-09-07T00:40:55.417Z,100701.53
2022-09-07T00:43:34.223Z,100658.44
2022-09-07T00:46:02.844Z,100581.13
2022-09-07T00:48:35.371Z,100364.59
2022-09-07T00:51:06.908Z,100310.50
2022-09-07T00:53:39.420Z,100135.28
2022-09-07T00:56:08.392Z,100021.06
2022-09-07T00:58:40.112Z,99911.84
2022-09-07T01:01:09.737Z,99785.31
2022-09-07T01:03:41.129Z,99665.53
2022-09-07T01:06:16.793Z,99570.59
2022-09-07T01:08:48.760Z,99694.81
2022-09-07T01:11:18.496Z,99726.56
2022-09-07T01:13:49.794Z,99734.38
2022-09-07T01:16:32.868Z,99881.97
2022-09-07T01:19:13.894Z,99971.13
2022-09-07T01:21:59.566Z,100074.78
2022-09-07T01:24:42.898Z,100673.41
2022-09-07T01:27:51.476Z,100857.66
2022-09-07T01:30:21.513Z,101547.03
2022-09-07T01:33:07.288Z,101190.66
2022-09-07T01:35:45.072Z,101188.47
2022-09-07T01:38:23.272Z,101146.97
2022-09-07T01:40:58.460Z,101132.63
2022-09-07T01:43:38.460Z,101116.69
2022-09-07T01:46:12.056Z,101079.72
2022-09-07T01:48:45.441Z,101078.59
2022-09-07T01:51:14.066Z,101060.75
2022-09-07T01:53:50.658Z,101040.41
2022-09-07T01:56:25.724Z,101020.94
2022-09-07T01:58:58.494Z,100988.56
2022-09-07T02:01:32.983Z,100970.38
2022-09-07T02:04:06.146Z,100963.97
2022-09-07T02:06:41.688Z,100921.38
2022-09-07T02:09:18.415Z,100901.13
2022-09-07T02:11:50.121Z,100887.75
2022-09-07T02:14:24.040Z,100868.91
2022-09-07T02:16:56.990Z,100861.00
2022-09-07T02:19:29.528Z,100839.28
2022-09-07T02:22:02.477Z,100824.81
2022-09-07T02:24:35.312Z,100792.31
2022-09-07T02:27:08.856Z,100785.25
2022-09-07T02:29:38.502Z,100777.63
2022-09-07T02:32:07.184Z,100774.75
2022-09-07T02:34:35.184Z,100765.78
2022-09-07T02:37:06.704Z,100769.81
2022-09-07T02:39:35.032Z,100765.97
2022-09-07T02:42:03.223Z,100751.09
2022-09-07T02:44:34.676Z,100726.84
2022-09-07T02:47:14.436Z,100730.94
2022-09-07T02:50:09.789Z,100724.16
2022-09-07T02:52:48.269Z,100699.16
2022-09-07T02:55:27.066Z,100711.53
2022-09-07T02:58:04.872Z,100701.44
2022-09-07T03:00:36.974Z,100694.56
2022-09-07T03:03:16.768Z,100695.53
2022-09-07T03:05:50.732Z,100698.19
2022-09-07T03:08:22.748Z,100690.94
2022-09-07T03:10:51.680Z,100689.78
2022-09-07T03:13:25.403Z,100690.44
2022-09-07T03:15:56.144Z,100683.09
2022-09-07T03:18:26.490Z,100672.09
2022-09-07T03:20:54.912Z,100662.25
2022-09-07T03:23:23.170Z,100649.78
2022-09-07T03:25:51.355Z,100639.19
2022-09-07T03:28:19.359Z,100635.13
2022-09-07T03:30:48.435Z,100626.59
2022-09-07T03:33:17.658Z,100626.88
2022-09-07T03:35:57.449Z,100617.81
2022-09-07T03:38:25.488Z,100611.88
2022-09-07T03:40:59.119Z,100613.22
2022-09-07T03:43:27.316Z,100622.38
2022-09-07T03:45:58.527Z,100620.88
2022-09-07T03:48:26.590Z,100621.13
2022-09-07T03:51:00.277Z,100630.44
2022-09-07T03:53:28.336Z,100629.75
2022-09-07T03:56:00.934Z,100628.91
2022-09-07T03:58:31.257Z,100625.38
2022-09-07T04:01:00.346Z,100629.38
2022-09-07T04:03:28.524Z,100628.28
2022-09-07T04:05:57.339Z,100626.38
2022-09-07T04:08:27.866Z,100632.31
2022-09-07T04:10:57.339Z,100634.66
2022-09-07T04:13:25.677Z,100637.72
2022-09-07T04:15:54.051Z,100644.66
2022-09-07T04:18:25.545Z,100637.31
2022-09-07T04:20:53.581Z,100638.38
2022-09-07T04:23:21.824Z,100631.13
2022-09-07T04:25:52.129Z,100627.59
2022-09-07T04:28:21.777Z,100632.94
2022-09-07T04:30:49.902Z,100642.22
2022-09-07T04:33:18.244Z,100634.66
2022-09-07T04:35:46.222Z,100644.06
2022-09-07T04:38:16.174Z,100650.47
2022-09-07T04:40:44.097Z,100656.19
2022-09-07T04:43:14.070Z,100658.38
2022-09-07T04:45:42.030Z,100654.28
2022-09-07T04:48:09.836Z,100661.81
2022-09-07T04:50:37.765Z,100659.44
2022-09-07T04:53:05.607Z,100663.47
2022-09-07T04:55:33.448Z,100673.03
2022-09-07T04:58:01.255Z,100679.91
2022-09-07T05:00:30.696Z,100686.00
2022-09-07T05:02:58.451Z,100692.50
2022-09-07T05:05:26.450Z,100691.16
2022-09-07T05:07:54.421Z,100692.88
2022-09-07T05:10:22.179Z,100687.75
2022-09-07T05:12:50.106Z,100690.78
2022-09-07T05:15:18.034Z,100685.16
2022-09-07T05:17:47.275Z,100693.75
2022-09-07T05:20:19.620Z,100687.44
2022-09-07T05:22:48.258Z,100691.06
2022-09-07T05:25:16.267Z,100702.78
2022-09-07T05:27:44.114Z,100710.44
2022-09-07T05:33:04.027Z,100708.25
2022-09-07T05:35:32.092Z,100718.63
2022-09-07T05:37:59.959Z,100713.09
2022-09-07T05:40:27.804Z,100707.41
2022-09-07T05:42:55.686Z,100714.75
2022-09-07T05:45:24.159Z,100710.72
2022-09-07T05:47:51.979Z,100715.44
2022-09-07T05:50:21.296Z,100718.38
2022-09-07T05:52:49.346Z,100715.88
2022-09-07T05:55:29.389Z,100720.00
2022-09-07T05:57:58.515Z,100724.38
2022-09-07T06:00:26.345Z,100738.13
2022-09-07T06:02:54.371Z,100737.75
2022-09-07T06:05:23.660Z,100739.63
2022-09-07T06:07:51.597Z,100747.00
2022-09-07T06:13:07.581Z,100740.22
2022-09-07T06:15:35.483Z,100745.75
2022-09-07T06:18:03.268Z,100729.34
2022-09-07T06:20:32.513Z,100733.44
2022-09-07T06:23:00.420Z,100734.63
2022-09-07T06:25:28.294Z,100731.56
2022-09-07T06:27:56.354Z,100729.09
2022-09-07T06:30:25.332Z,100722.03
2022-09-07T06:32:53.394Z,100721.16
2022-09-07T06:35:21.248Z,100729.94
2022-09-07T06:37:50.459Z,100729.28
2022-09-07T06:40:18.459Z,100725.84
2022-09-07T06:42:46.269Z,100714.78
2022-09-07T06:45:14.121Z,100712.19
2022-09-07T06:47:42.142Z,100712.28
2022-09-07T06:50:12.385Z,100721.44
2022-09-07T06:55:29.922Z,100726.41
2022-09-07T06:57:57.858Z,100719.34
2022-09-07T07:00:25.719Z,100725.22
2022-09-07T07:02:53.854Z,100725.88
2022-09-07T07:05:21.985Z,100714.84
2022-09-07T07:07:49.928Z,100715.91
2022-09-07T07:10:22.182Z,100715.47
2022-09-07T07:12:57.389Z,100725.28
2022-09-07T07:15:27.618Z,100725.44
2022-09-07T07:18:09.274Z,100716.09
2022-09-07T07:20:43.145Z,100721.25
2022-09-07T07:23:12.223Z,100714.91
2022-09-07T07:25:40.189Z,100721.66
2022-09-07T07:30:58.285Z,100708.41
2022-09-07T07:33:43.814Z,100702.19
2022-09-07T07:36:13.069Z,100697.78
2022-09-07T07:44:26.042Z,100692.41
2022-09-07T07:46:55.553Z,100685.97
2022-09-07T07:49:23.620Z,100674.69
2022-09-07T07:54:39.367Z,100672.66
2022-09-07T07:57:07.684Z,100678.19
2022-09-07T07:59:37.501Z,100685.06
2022-09-07T08:02:06.413Z,100681.31
2022-09-07T08:04:35.136Z,100688.53
2022-09-07T08:07:09.719Z,100693.16
2022-09-07T08:09:38.246Z,100684.00
2022-09-07T08:12:06.181Z,100690.94
2022-09-07T08:14:36.517Z,100694.25
2022-09-07T08:17:05.869Z,100697.91
2022-09-07T08:19:33.845Z,100690.88
2022-09-07T08:22:03.876Z,100692.50
2022-09-07T08:24:32.925Z,100705.34
2022-09-07T08:27:00.819Z,100715.50
2022-09-07T08:29:33.461Z,100725.84
2022-09-07T08:32:02.444Z,100735.19
2022-09-07T08:34:31.749Z,100743.00
2022-09-07T08:36:59.757Z,100745.69
2022-09-07T08:39:27.676Z,100749.13
2022-09-07T08:42:14.876Z,100752.16
2022-09-07T08:44:48.857Z,100771.22
2022-09-07T08:47:28.513Z,100782.28
2022-09-07T08:50:05.320Z,100793.88
2022-09-07T08:52:43.763Z,100817.59
2022-09-07T08:55:17.508Z,100851.34
2022-09-07T08:57:52.634Z,100910.00
2022-09-07T09:00:22.594Z,100943.94
2022-09-07T09:05:47.847Z,100950.22
2022-09-07T09:08:29.819Z,100956.09
2022-09-07T09:11:05.273Z,100954.25
2022-09-07T09:13:45.343Z,100947.41
2022-09-07T09:16:20.133Z,100961.75
2022-09-07T09:19:03.226Z,100951.50
2022-09-07T09:21:33.132Z,100946.25
2022-09-07T09:24:12.128Z,100949.53
2022-09-07T09:26:43.226Z,100989.72
2022-09-07T09:29:15.392Z,100990.50
2022-09-07T09:31:43.582Z,100980.59
2022-09-07T09:34:14.254Z,100962.63
2022-09-07T09:36:46.807Z,100950.44
2022-09-07T09:39:35.352Z,100951.31
2022-09-07T09:42:16.819Z,100949.31
2022-09-07T09:44:45.718Z,100955.50
2022-09-07T09:47:32.690Z,100948.69
2022-09-07T09:50:03.319Z,100949.50
2022-09-07T09:52:47.597Z,100931.16
2022-09-07T09:55:35.818Z,100951.38
2022-09-07T10:04:00.900Z,100933.44
2022-09-07T10:06:35.853Z,100928.13
2022-09-07T10:09:06.932Z,100921.56
2022-09-07T10:14:33.483Z,100919.25
2022-09-07T10:17:02.545Z,100928.16
2022-09-07T10:19:36.096Z,100905.88
2022-09-07T10:22:08.343Z,100903.59
2022-09-07T10:24:41.469Z,100908.63
2022-09-07T10:27:21.767Z,100923.13
2022-09-07T10:29:49.728Z,100914.34
2022-09-07T10:32:26.914Z,100647.56
2022-09-07T10:35:09.159Z,100470.41
2022-09-07T10:37:50.823Z,100645.34
2022-09-07T10:40:29.575Z,100682.84
2022-09-07T10:43:22.236Z,100608.50
2022-09-07T10:46:10.577Z,100579.56
2022-09-07T10:48:49.423Z,100559.59
2022-09-07T10:51:19.163Z,100515.94
2022-09-07T10:56:53.428Z,100505.53
2022-09-07T11:02:31.264Z,100542.72
2022-09-07T11:05:09.949Z,100525.22
2022-09-07T11:07:55.440Z,100509.16
2022-09-07T11:10:33.447Z,100520.81
2022-09-07T11:13:06.824Z,100487.03
2022-09-07T11:15:39.134Z,100499.91
2022-09-07T11:18:13.108Z,100503.72
2022-09-07T11:20:46.159Z,100493.25
2022-09-07T11:23:20.199Z,100500.28
2022-09-07T11:25:59.918Z,100489.88
2022-09-07T11:28:35.270Z,100478.84
2022-09-07T11:31:08.334Z,100474.03
2022-09-07T11:34:23.820Z,100441.22
2022-09-07T11:36:44.171Z,100451.72
2022-09-07T11:39:19.885Z,100448.28
2022-09-07T11:41:55.245Z,100446.59
2022-09-07T11:44:30.661Z,100432.53
2022-09-07T11:47:05.899Z,100454.06
2022-09-07T11:49:33.777Z,100460.84
2022-09-07T11:52:05.499Z,100448.75
2022-09-07T11:54:45.867Z,100467.47
2022-09-07T11:57:28.408Z,100445.22
2022-09-07T12:00:05.763Z,100464.94
2022-09-07T12:03:01.917Z,100411.72
2022-09-07T12:05:51.111Z,100401.81
2022-09-07T12:08:31.652Z,100391.44
2022-09-07T12:11:11.756Z,100380.75
2022-09-07T12:14:12.457Z,100405.50
2022-09-07T12:17:02.633Z,100418.44
2022-09-07T12:19:30.534Z,100423.78
2022-09-07T12:21:59.756Z,100419.13
2022-09-07T12:24:36.351Z,100400.72
2022-09-07T12:27:05.349Z,100390.22
2022-09-07T12:29:36.829Z,100422.25
2022-09-07T12:32:53.145Z,100434.75
2022-09-07T12:34:58.018Z,100444.75
2022-09-07T12:37:40.838Z,100417.72
2022-09-07T12:40:51.375Z,100420.59
2022-09-07T12:43:53.851Z,100400.28
2022-09-07T12:46:46.784Z,100388.56
2022-09-07T12:49:39.506Z,100400.56
2022-09-07T12:52:33.152Z,100416.63
2022-09-07T12:55:27.811Z,100421.00
2022-09-07T12:58:13.197Z,100446.53
2022-09-07T13:00:54.696Z,100396.34
2022-09-07T13:03:55.094Z,100386.63
2022-09-07T13:09:35.688Z,100368.44
2022-09-07T13:15:32.606Z,100326.09
2022-09-07T13:18:00.757Z,100321.53
2022-09-07T13:20:37.548Z,100331.69
2022-09-07T13:23:21.260Z,100362.09
2022-09-07T13:25:52.067Z,100358.97
2022-09-07T13:28:31.965Z,100344.50
2022-09-07T13:31:22.063Z,100341.03
2022-09-07T13:33:54.722Z,100344.88
2022-09-07T13:36:46.368Z,100344.72
2022-09-07T13:39:18.676Z,100345.41
2022-09-07T13:41:52.236Z,100339.44
2022-09-07T13:44:26.240Z,100326.91
2022-09-07T13:47:33.937Z,100344.97
2022-09-07T13:50:18.299Z,100301.53
2022-09-07T13:53:17.317Z,100282.16
2022-09-07T13:55:54.060Z,100260.41
2022-09-07T13:58:28.417Z,100256.38
2022-09-07T14:01:00.052Z,100267.16
2022-09-07T14:03:31.427Z,100286.38
2022-09-07T14:06:16.729Z,100298.53
2022-09-07T14:08:48.613Z,100305.81
2022-09-07T14:11:20.678Z,100300.78
2022-09-07T14:14:08.704Z,100303.25
2022-09-07T14:16:39.210Z,100290.19
2022-09-07T14:19:18.251Z,100283.84
2022-09-07T14:21:56.010Z,100288.66
2022-09-07T14:24:31.070Z,100243.84
2022-09-07T14:27:01.287Z,100279.41
2022-09-07T14:29:32.114Z,100245.47
2022-09-07T14:32:01.931Z,100265.91
2022-09-07T14:34:33.286Z,100262.47
2022-09-07T14:37:06.378Z,100214.28
2022-09-07T14:39:39.255Z,100188.16
2022-09-07T14:42:12.256Z,100191.75
2022-09-07T14:44:43.115Z,100167.31
2022-09-07T14:47:25.974Z,100195.44
2022-09-07T14:49:55.949Z,100216.53
2022-09-07T14:52:36.721Z,100233.75
2022-09-07T14:55:19.866Z,100225.13
2022-09-07T14:57:50.231Z,100200.25
2022-09-07T15:00:30.139Z,100182.00
2022-09-07T15:02:58.238Z,100158.28
2022-09-07T15:05:28.452Z,100186.56
2022-09-07T15:08:00.138Z,100155.19
2022-09-07T15:10:35.638Z,100151.72
2022-09-07T15:13:07.246Z,100192.75
2022-09-07T15:15:37.436Z,100198.63
2022-09-07T15:18:09.225Z,100197.66
2022-09-07T15:20:40.880Z,100191.31
2022-09-07T15:23:12.309Z,100198.19
2022-09-07T15:25:43.279Z,100181.44
2022-09-07T15:34:09.813Z,100208.09
2022-09-07T15:36:40.335Z,100182.31
2022-09-07T15:39:17.114Z,100187.50
2022-09-07T15:41:45.710Z,100182.44
2022-09-07T15:44:15.914Z,100180.28
2022-09-07T15:47:43.232Z,100159.03
2022-09-07T15:56:40.058Z,100162.81
2022-09-07T15:59:14.373Z,100158.72
2022-09-07T16:01:59.430Z,100152.78
2022-09-07T16:04:28.033Z,100160.28
2022-09-07T16:06:55.912Z,100151.88
2022-09-07T16:09:23.785Z,100158.19
2022-09-07T16:11:52.090Z,100153.66
2022-09-07T16:14:20.474Z,100157.69
2022-09-07T16:19:41.061Z,100170.78
2022-09-07T16:23:13.286Z,100172.31
2022-09-07T16:24:59.997Z,100176.53
2022-09-07T16:27:32.142Z,100189.41
2022-09-07T16:30:00.783Z,100180.94
2022-09-07T16:32:45.685Z,100176.38
2022-09-07T16:35:13.758Z,100194.69
2022-09-07T16:38:43.605Z,100183.16
2022-09-07T16:40:29.328Z,100182.69
2022-09-07T16:42:57.207Z,100192.06
2022-09-07T16:48:14.307Z,100197.09
2022-09-07T16:50:56.512Z,100278.63
2022-09-07T16:53:29.114Z,100341.03
2022-09-07T16:56:01.670Z,100377.66
2022-09-07T16:58:38.299Z,100405.44
2022-09-07T17:01:07.730Z,100415.28
2022-09-07T17:03:37.403Z,100446.75
2022-09-07T17:06:06.726Z,100483.84
2022-09-07T17:08:35.390Z,100516.22
2022-09-07T17:11:04.450Z,100535.09
2022-09-07T17:13:33.084Z,100532.66
2022-09-07T17:16:04.389Z,100588.88
2022-09-07T17:21:21.994Z,100580.41
2022-09-07T17:23:55.367Z,100541.03
2022-09-07T17:26:27.420Z,100490.94
2022-09-07T17:29:00.273Z,100510.69
2022-09-07T17:34:19.491Z,100543.44
2022-09-07T17:36:49.097Z,100551.91
2022-09-07T17:39:19.690Z,100635.22
2022-09-07T17:41:48.674Z,100724.13
2022-09-07T17:44:17.458Z,100775.06
2022-09-07T17:46:45.455Z,100817.41
2022-09-07T17:49:16.246Z,100856.41
2022-09-07T17:51:46.108Z,100880.75
2022-09-07T17:54:17.627Z,100906.25
2022-09-07T17:56:46.091Z,100898.22
2022-09-07T18:02:08.240Z,100898.19
2022-09-07T18:04:52.944Z,100882.56
2022-09-07T18:07:21.946Z,100891.50
2022-09-07T18:09:51.220Z,100888.97
2022-09-07T18:12:19.129Z,100896.28
2022-09-07T18:14:46.950Z,100893.28
2022-09-07T18:17:16.013Z,100885.16
2022-09-07T18:19:43.953Z,100877.56
2022-09-07T18:22:11.989Z,100881.97
2022-09-07T18:24:40.947Z,100891.44
2022-09-07T18:27:10.376Z,100873.56
2022-09-07T18:29:40.478Z,100871.19
2022-09-07T18:32:09.856Z,100874.31
2022-09-07T18:34:40.756Z,100873.66
2022-09-07T18:37:12.192Z,100865.59
2022-09-07T18:39:40.918Z,100868.75
2022-09-07T18:42:11.009Z,100866.56
2022-09-07T18:47:29.391Z,100884.88
2022-09-07T18:49:58.654Z,100881.59
2022-09-07T18:55:16.174Z,100881.25
2022-09-07T18:57:45.538Z,100878.97
2022-09-07T19:00:14.518Z,100876.81
2022-09-07T19:02:44.903Z,100879.38
2022-09-07T19:08:03.431Z,100861.75
2022-09-07T19:10:33.968Z,100869.63
2022-09-07T19:13:03.538Z,100866.16
2022-09-07T19:15:37.146Z,100863.13
2022-09-07T19:18:06.958Z,100870.00
2022-09-07T19:20:42.454Z,100850.53
2022-09-07T19:23:10.321Z,100868.31
2022-09-07T19:25:42.307Z,100860.47
2022-09-07T19:28:11.604Z,100855.66
2022-09-07T19:30:39.528Z,100848.16
2022-09-07T19:33:10.004Z,100850.19
2022-09-07T19:35:37.915Z,100841.09
2022-09-07T19:38:06.024Z,100847.28
2022-09-07T19:40:34.059Z,100858.78
2022-09-07T19:43:01.913Z,100867.38
2022-09-07T19:45:31.569Z,100865.19
2022-09-07T19:47:59.527Z,100858.44
2022-09-07T19:50:27.301Z,100862.94
2022-09-07T19:52:55.286Z,100852.00
2022-09-07T19:55:25.600Z,100846.00
2022-09-07T19:57:53.409Z,100842.88
2022-09-07T20:00:22.647Z,100842.31
2022-09-07T20:02:55.180Z,100835.91
2022-09-07T20:05:23.853Z,100835.91
2022-09-07T20:07:51.882Z,100835.13
2022-09-07T20:10:19.723Z,100825.63
2022-09-07T20:12:48.564Z,100822.59
2022-09-07T20:15:16.454Z,100815.22
2022-09-07T20:17:44.392Z,100816.38
2022-09-07T20:20:13.585Z,100808.16
2022-09-07T20:22:41.515Z,100821.91
2022-09-07T20:25:13.144Z,100811.03
2022-09-07T20:27:41.676Z,100806.22
2022-09-07T20:30:10.408Z,100798.09
2022-09-07T20:32:38.204Z,100792.84
2022-09-07T20:35:06.793Z,100794.25
2022-09-07T20:37:36.064Z,100767.72
2022-09-07T20:40:06.335Z,100777.91
2022-09-07T20:42:34.358Z,100776.25
2022-09-07T20:45:02.869Z,100770.47
2022-09-07T20:47:30.899Z,100770.88
2022-09-07T20:49:58.844Z,100768.09
2022-09-07T20:52:27.296Z,100761.66
2022-09-07T20:54:57.138Z,100757.59
2022-09-07T20:57:25.038Z,100744.41
2022-09-07T20:59:53.041Z,100755.72
2022-09-07T21:02:20.944Z,100758.34
2022-09-07T21:04:48.918Z,100745.22
2022-09-07T21:07:16.770Z,100748.78
2022-09-07T21:09:44.559Z,100755.16
2022-09-07T21:12:14.176Z,100749.81
2022-09-07T21:14:42.045Z,100757.31
2022-09-07T21:17:09.842Z,100747.03
2022-09-07T21:19:37.727Z,100741.72
2022-09-07T21:22:05.717Z,100732.03
2022-09-07T21:24:33.491Z,100735.47
2022-09-07T21:27:01.299Z,100734.75
2022-09-07T21:29:30.670Z,100737.75
2022-09-07T21:31:58.514Z,100730.88
2022-09-07T21:34:26.356Z,100731.28
2022-09-07T21:36:54.199Z,100720.56
2022-09-07T21:39:22.107Z,100722.09
2022-09-07T21:41:50.256Z,100718.81
2022-09-07T21:44:18.393Z,100713.06
2022-09-07T21:46:47.721Z,100704.38
2022-09-07T21:49:15.593Z,100703.97
2022-09-07T21:51:43.607Z,100711.38
2022-09-07T21:54:11.840Z,100705.44
2022-09-07T21:56:44.382Z,100704.50
2022-09-07T21:59:13.896Z,100703.28
2022-09-07T22:01:41.992Z,100700.16
2022-09-07T22:04:13.567Z,100695.75
2022-09-07T22:06:43.897Z,100689.59
2022-09-07T22:09:11.610Z,100682.72
2022-09-07T22:11:42.020Z,100691.13
2022-09-07T22:14:15.741Z,100684.50
2022-09-07T22:16:43.683Z,100684.19
2022-09-07T22:19:12.913Z,100676.63
2022-09-07T22:21:41.109Z,100681.69
2022-09-07T22:24:08.861Z,100679.31
2022-09-07T22:26:38.388Z,100676.03
2022-09-07T22:29:07.635Z,100676.75
2022-09-07T22:31:37.416Z,100670.16
2022-09-07T22:34:08.892Z,100673.13
2022-09-07T22:36:39.927Z,100669.16
2022-09-07T22:39:09.941Z,100667.03
2022-09-07T22:41:40.028Z,100662.38
2022-09-07T22:44:10.587Z,100658.69
2022-09-07T22:46:40.663Z,100659.28
2022-09-07T22:49:09.990Z,100669.34
2022-09-07T22:51:39.562Z,100652.56
2022-09-07T22:54:07.940Z,100668.31
2022-09-07T22:56:35.819Z,100655.47
2022-09-07T22:59:07.502Z,100657.13
2022-09-07T23:01:36.662Z,100650.94
2022-09-07T23:04:05.695Z,100652.69
2022-09-07T23:06:35.594Z,100642.75
2022-09-07T23:09:07.779Z,100639.19
2022-09-07T23:11:36.492Z,100644.31
2022-09-07T23:14:06.499Z,100638.13
2022-09-07T23:16:35.137Z,100633.16
2022-09-07T23:19:02.957Z,100621.13
2022-09-07T23:21:30.835Z,100626.84
2022-09-07T23:24:00.789Z,100626.63
2022-09-07T23:26:32.075Z,100620.72
2022-09-07T23:29:01.783Z,100621.13
2022-09-07T23:31:31.674Z,100611.50
2022-09-07T23:33:59.819Z,100599.00
2022-09-07T23:36:29.579Z,100601.28
2022-09-07T23:38:59.590Z,100593.09
2022-09-07T23:41:29.585Z,100581.16
2022-09-07T23:43:57.688Z,100593.84
2022-09-07T23:46:26.067Z,100579.44
2022-09-07T23:48:54.301Z,100568.28
2022-09-07T23:51:24.520Z,100566.09
2022-09-07T23:53:53.513Z,100571.91
2022-09-07T23:56:21.574Z,100559.25
2022-09-07T23:58:50.827Z,100567.91
